Terminal Aerodrome Forecast
Issued by NWS

Home | Current Version | Previous Version | Text Only | Print | Product List | Glossary On
Versions: 1 2 3 4 5 6 7 8 9 10 11 12 13 14 15 16 17 18
000
FTUS45 KBOI 212320
TAFMYL
TAF
KMYL 212320Z 2200/2224 15006KT P6SM VCSH SCT025 OVC050
      TEMPO 2200/2204 3SM -SHSN BKN020 OVC040
     FM220400 VRB04KT P6SM SCT030 BKN060
     FM221600 VRB04KT P6SM VCSH OVC030
     FM222000 15007KT 1SM -SN BR OVC010=

USA.gov is the U.S. government's official web portal to all federal, state and local government web resources and services.